Terminal Aerodrome Forecast
Issued by NWS

Current Version | Previous Version | Graphics & Text | Print | Product List | Glossary On
Versions: 1 2 3 4 5 6 7 8 9 10 11 12 13 14 15 16
000
FTUS41 KRNK 210533
TAFLWB
TAF
KLWB 210533Z 2106/2206 00000KT 4SM -RA SCT001 BKN070 OVC090
     FM210700 00000KT 2SM BR SCT001 BKN060
     FM210900 23004KT 5SM SHRA BR SCT005 OVC020
     FM211500 28007KT 3SM -SHRA OVC007
     FM211800 28007KT P6SM SCT025 BKN090
     FM212100 29008KT P6SM SCT035 BKN250
     FM220000 29003KT 6SM BR OVC015=

USA.gov is the U.S. government's official web portal to all federal, state and local government web resources and services.